createdAt,value
2019-05-07T00:00:35.466Z,44.53
2019-05-07T00:03:03.971Z,48.65
2019-05-07T00:05:33.149Z,50.90
2019-05-07T00:08:02.989Z,50.50
2019-05-07T00:10:33.101Z,49.27
2019-05-07T00:13:02.363Z,37.95
2019-05-07T00:15:32.814Z,49.63
2019-05-07T00:18:03.200Z,46.53
2019-05-07T00:20:32.706Z,48.78
2019-05-07T00:23:02.930Z,44.03
2019-05-07T00:25:32.857Z,43.30
2019-05-07T00:28:02.955Z,50.13
2019-05-07T00:30:33.237Z,45.88
2019-05-07T00:33:02.898Z,44.08
2019-05-07T00:35:35.736Z,45.52
2019-05-07T00:38:14.576Z,45.08
2019-05-07T00:40:44.632Z,46.70
2019-05-07T00:43:14.746Z,35.13
2019-05-07T00:45:56.676Z,44.50
2019-05-07T00:48:23.918Z,47.20
2019-05-07T00:50:54.007Z,44.60
2019-05-07T00:53:23.649Z,51.53
2019-05-07T00:55:52.605Z,45.50
2019-05-07T00:58:25.989Z,43.73
2019-05-07T01:00:53.127Z,31.80
2019-05-07T01:03:22.208Z,43.92
2019-05-07T01:05:52.740Z,40.23
2019-05-07T01:08:22.546Z,42.62
2019-05-07T01:10:52.868Z,41.13
2019-05-07T01:13:23.491Z,47.53
2019-05-07T01:15:53.225Z,45.48
2019-05-07T01:18:23.283Z,41.55
2019-05-07T01:20:53.288Z,39.50
2019-05-07T01:23:22.856Z,41.80
2019-05-07T01:25:52.628Z,39.40
2019-05-07T01:28:22.316Z,43.60
2019-05-07T01:30:52.745Z,42.60
2019-05-07T01:33:25.468Z,42.38
2019-05-07T01:35:58.231Z,45.98
2019-05-07T01:38:26.759Z,44.75
2019-05-07T01:40:55.172Z,42.60
2019-05-07T01:43:23.612Z,43.98
2019-05-07T01:45:53.035Z,48.00
2019-05-07T01:48:23.027Z,45.03
2019-05-07T01:50:52.537Z,44.65
2019-05-07T01:53:22.761Z,45.70
2019-05-07T01:55:52.392Z,47.80
2019-05-07T01:58:22.127Z,44.55
2019-05-07T02:00:53.041Z,53.80
2019-05-07T02:03:34.772Z,50.12
2019-05-07T02:06:13.487Z,51.10
2019-05-07T02:08:43.581Z,50.28
2019-05-07T02:11:13.677Z,47.90
2019-05-07T02:13:42.131Z,49.90
2019-05-07T02:16:12.432Z,57.25
2019-05-07T02:18:42.420Z,53.13
2019-05-07T02:21:12.888Z,54.25
2019-05-07T02:23:42.578Z,56.30
2019-05-07T02:26:13.364Z,55.30
2019-05-07T02:28:42.695Z,58.15
2019-05-07T02:31:15.113Z,58.63
2019-05-07T02:33:43.835Z,54.75
2019-05-07T02:36:14.188Z,54.27
2019-05-07T02:38:44.444Z,52.85
2019-05-07T02:41:14.612Z,56.75
2019-05-07T02:43:43.124Z,53.35
2019-05-07T02:46:26.374Z,52.78
2019-05-07T02:48:46.557Z,54.58
2019-05-07T02:51:19.337Z,61.42
2019-05-07T02:54:05.530Z,56.77
2019-05-07T02:56:33.967Z,55.35
2019-05-07T02:59:04.060Z,61.15
2019-05-07T03:01:33.480Z,56.40
2019-05-07T03:04:03.642Z,61.00
2019-05-07T03:06:33.922Z,66.55
2019-05-07T03:09:03.295Z,58.55
2019-05-07T03:11:34.036Z,52.62
2019-05-07T03:14:03.150Z,56.00
2019-05-07T03:16:39.678Z,54.70
2019-05-07T03:19:04.019Z,54.30
2019-05-07T03:21:53.424Z,55.23
2019-05-07T03:24:23.077Z,53.08
2019-05-07T03:26:53.545Z,58.35
2019-05-07T03:29:24.146Z,58.40
2019-05-07T03:31:56.423Z,61.45
2019-05-07T03:34:38.268Z,54.42
2019-05-07T03:37:08.341Z,57.78
2019-05-07T03:39:36.755Z,59.88
2019-05-07T03:42:05.250Z,59.63
2019-05-07T03:44:38.048Z,61.42
2019-05-07T03:47:17.869Z,61.58
2019-05-07T03:49:46.314Z,64.42
2019-05-07T03:52:16.421Z,61.77
2019-05-07T03:54:44.844Z,63.80
2019-05-07T03:57:15.776Z,61.37
2019-05-07T03:59:43.557Z,62.75
2019-05-07T04:02:14.304Z,54.18
2019-05-07T04:04:43.226Z,64.07
2019-05-07T04:07:13.787Z,57.62
2019-05-07T04:09:43.756Z,60.05
2019-05-07T04:12:13.327Z,64.03
2019-05-07T04:14:43.292Z,60.92
2019-05-07T04:17:17.295Z,57.25
2019-05-07T04:19:44.133Z,70.85
2019-05-07T04:22:13.267Z,63.95
2019-05-07T04:24:46.062Z,67.45
2019-05-07T04:27:25.161Z,59.75
2019-05-07T04:29:53.617Z,55.85
2019-05-07T04:32:23.686Z,60.08
2019-05-07T04:34:59.212Z,59.80
2019-05-07T04:37:27.636Z,64.50
2019-05-07T04:39:56.066Z,62.62
2019-05-07T04:42:24.901Z,65.12
2019-05-07T04:44:54.109Z,65.67
2019-05-07T04:47:34.758Z,67.60
2019-05-07T04:49:53.601Z,71.95
2019-05-07T04:52:23.990Z,73.97
2019-05-07T04:54:52.912Z,70.25
2019-05-07T04:57:25.838Z,68.95
2019-05-07T05:00:03.304Z,70.85
2019-05-07T05:02:32.611Z,70.20
2019-05-07T05:05:03.276Z,68.95
2019-05-07T05:07:33.487Z,61.20
2019-05-07T05:10:02.760Z,77.80
2019-05-07T05:12:32.599Z,65.00
2019-05-07T05:15:02.160Z,70.53
2019-05-07T05:17:32.042Z,82.10
2019-05-07T05:20:03.569Z,71.40
2019-05-07T05:22:42.543Z,75.30
2019-05-07T05:25:12.885Z,75.63
2019-05-07T05:27:42.965Z,58.75
2019-05-07T05:30:30.173Z,79.42
2019-05-07T05:33:01.321Z,80.50
2019-05-07T05:35:28.808Z,87.37
2019-05-07T05:37:57.218Z,91.35
2019-05-07T05:40:25.674Z,84.72
2019-05-07T05:42:55.804Z,87.17
2019-05-07T05:45:36.626Z,80.75
2019-05-07T05:50:53.831Z,79.92
2019-05-07T05:53:25.089Z,82.30
2019-05-07T05:55:54.385Z,77.32
2019-05-07T05:58:25.524Z,74.50
2019-05-07T06:00:55.628Z,77.17
2019-05-07T06:03:46.745Z,86.37
2019-05-07T06:06:32.729Z,80.53
2019-05-07T06:09:12.413Z,68.35
2019-05-07T06:11:57.463Z,69.62
2019-05-07T06:14:33.297Z,63.50
2019-05-07T06:17:13.073Z,64.32
2019-05-07T06:19:49.326Z,66.67
2019-05-07T06:22:19.418Z,66.30
2019-05-07T06:24:56.552Z,60.73
2019-05-07T06:27:24.985Z,62.43
2019-05-07T06:29:53.418Z,53.90
2019-05-07T06:32:22.886Z,65.47
2019-05-07T06:34:52.273Z,62.00
2019-05-07T06:37:22.944Z,66.85
2019-05-07T06:39:58.433Z,65.62
2019-05-07T06:42:28.577Z,68.47
2019-05-07T06:45:02.933Z,71.97
2019-05-07T06:47:31.971Z,86.78
2019-05-07T06:50:05.422Z,70.60
2019-05-07T06:52:35.380Z,66.53
2019-05-07T06:55:04.633Z,80.95
2019-05-07T06:57:35.124Z,73.02
2019-05-07T07:00:08.657Z,74.35
2019-05-07T07:02:41.993Z,67.75
2019-05-07T07:05:12.433Z,59.67
2019-05-07T07:07:45.176Z,72.20
2019-05-07T07:10:15.436Z,70.00
2019-05-07T07:12:43.983Z,58.28
2019-05-07T07:15:12.527Z,63.52
2019-05-07T07:17:43.377Z,65.28
2019-05-07T07:22:42.574Z,53.17
2019-05-07T07:25:11.899Z,56.63
2019-05-07T07:27:42.718Z,49.67
2019-05-07T07:30:12.800Z,45.20
2019-05-07T07:35:13.029Z,51.68
2019-05-07T07:37:42.991Z,43.10
2019-05-07T07:40:22.435Z,39.60
2019-05-07T07:42:52.035Z,32.00
2019-05-07T07:45:22.795Z,29.23
2019-05-07T07:47:52.927Z,27.60
2019-05-07T07:50:22.389Z,30.85
2019-05-07T07:52:52.976Z,30.62
2019-05-07T07:55:22.767Z,32.25
2019-05-07T07:57:52.852Z,29.77
2019-05-07T08:00:32.910Z,28.83
2019-05-07T08:03:03.147Z,29.63
2019-05-07T08:05:32.563Z,25.48
2019-05-07T08:08:02.285Z,27.52
2019-05-07T08:10:32.540Z,27.70
2019-05-07T08:13:01.926Z,25.90
2019-05-07T08:15:33.021Z,20.82
2019-05-07T08:18:02.772Z,30.55
2019-05-07T08:20:32.634Z,28.80
2019-05-07T08:23:02.877Z,23.40
2019-05-07T08:25:52.231Z,24.00
2019-05-07T08:28:23.122Z,28.35
2019-05-07T08:30:53.211Z,22.90
2019-05-07T08:33:26.279Z,20.97
2019-05-07T08:36:11.981Z,28.05
2019-05-07T08:38:52.731Z,22.42
2019-05-07T08:41:22.792Z,25.52
2019-05-07T08:44:07.339Z,18.12
2019-05-07T08:46:24.872Z,18.27
2019-05-07T08:48:53.305Z,14.43
2019-05-07T08:51:22.354Z,16.48
2019-05-07T08:54:06.220Z,19.60
2019-05-07T08:56:36.291Z,16.30
2019-05-07T08:59:08.093Z,21.62
2019-05-07T09:01:39.248Z,20.25
2019-05-07T09:04:07.725Z,15.78
2019-05-07T09:06:36.306Z,13.98
2019-05-07T09:09:13.462Z,17.42
2019-05-07T09:11:42.599Z,13.70
2019-05-07T09:14:12.969Z,14.05
2019-05-07T09:16:42.644Z,13.60
2019-05-07T09:19:12.895Z,14.57
2019-05-07T09:21:42.832Z,11.57
2019-05-07T09:24:12.364Z,21.17
2019-05-07T09:26:42.534Z,15.48
2019-05-07T09:29:15.013Z,22.32
2019-05-07T09:31:52.540Z,12.82
2019-05-07T09:34:25.170Z,13.45
2019-05-07T09:37:12.398Z,16.85
2019-05-07T09:39:43.365Z,15.32
2019-05-07T09:44:42.484Z,17.32
2019-05-07T09:47:12.786Z,19.85
2019-05-07T09:49:41.943Z,11.35
2019-05-07T09:52:12.279Z,19.15
2019-05-07T09:54:42.690Z,16.35
2019-05-07T09:57:25.439Z,11.73
2019-05-07T09:59:42.618Z,13.08
2019-05-07T10:02:12.245Z,11.57
2019-05-07T10:04:41.810Z,13.13
2019-05-07T10:07:12.605Z,14.70
2019-05-07T10:09:42.577Z,12.35
2019-05-07T10:12:24.634Z,9.03
2019-05-07T10:14:53.134Z,10.95
2019-05-07T10:17:26.192Z,14.28
2019-05-07T10:19:54.625Z,10.43
2019-05-07T10:22:23.049Z,14.10
2019-05-07T10:24:52.213Z,11.68
2019-05-07T10:27:21.813Z,12.63
2019-05-07T10:29:50.372Z,7.85
2019-05-07T10:32:18.800Z,7.80
2019-05-07T10:34:47.619Z,11.83
2019-05-07T10:37:16.063Z,9.43
2019-05-07T10:39:44.576Z,7.55
2019-05-07T10:42:13.059Z,11.03
2019-05-07T10:44:48.791Z,8.73
2019-05-07T10:47:35.352Z,12.18
2019-05-07T10:50:17.215Z,11.63
2019-05-07T10:52:45.760Z,9.18
2019-05-07T10:55:14.548Z,11.45
2019-05-07T10:57:42.979Z,11.25
2019-05-07T11:00:14.302Z,11.28
2019-05-07T11:02:42.713Z,10.72
2019-05-07T11:05:12.977Z,9.23
2019-05-07T11:07:42.222Z,9.80
2019-05-07T11:10:12.512Z,10.28
2019-05-07T11:12:42.433Z,10.03
2019-05-07T11:15:12.658Z,8.60
2019-05-07T11:17:48.624Z,10.98
2019-05-07T11:20:18.594Z,10.93
2019-05-07T11:22:47.125Z,6.30
2019-05-07T11:25:15.666Z,9.40
2019-05-07T11:27:44.099Z,11.53
2019-05-07T11:30:13.860Z,10.58
2019-05-07T11:32:42.948Z,10.23
2019-05-07T11:35:14.532Z,13.32
2019-05-07T11:37:44.141Z,7.17
2019-05-07T11:40:13.123Z,12.75
2019-05-07T11:43:02.518Z,10.65
2019-05-07T11:45:32.781Z,12.95
2019-05-07T11:48:01.874Z,8.50
2019-05-07T11:51:00.576Z,9.40
2019-05-07T11:53:22.078Z,10.82
2019-05-07T11:55:52.294Z,7.35
2019-05-07T11:58:22.012Z,13.40
2019-05-07T12:00:55.073Z,8.93
2019-05-07T12:03:23.468Z,9.25
2019-05-07T12:05:52.709Z,14.78
2019-05-07T12:08:22.401Z,10.05
2019-05-07T12:10:51.835Z,10.98
2019-05-07T12:13:21.829Z,11.65
2019-05-07T12:15:52.077Z,6.58
2019-05-07T12:18:22.538Z,9.40
2019-05-07T12:20:53.849Z,13.53
2019-05-07T12:23:22.712Z,10.18
2019-05-07T12:25:52.933Z,11.03
2019-05-07T12:28:22.565Z,12.65
2019-05-07T12:30:58.816Z,14.45
2019-05-07T12:33:32.464Z,9.10
2019-05-07T12:36:01.998Z,11.38
2019-05-07T12:38:32.386Z,9.15
2019-05-07T12:41:02.497Z,9.60
2019-05-07T12:43:31.934Z,12.07
2019-05-07T12:46:02.728Z,10.68
2019-05-07T12:48:30.618Z,9.93
2019-05-07T12:50:59.055Z,8.73
2019-05-07T12:53:29.143Z,14.43
2019-05-07T12:56:02.162Z,8.90
2019-05-07T12:58:32.305Z,7.87
2019-05-07T13:01:05.442Z,8.73
2019-05-07T13:03:38.270Z,7.50
2019-05-07T13:06:06.720Z,7.53
2019-05-07T13:08:35.127Z,5.65
2019-05-07T13:11:03.614Z,5.83
2019-05-07T13:13:32.216Z,4.53
2019-05-07T13:16:02.706Z,8.25
2019-05-07T13:18:31.138Z,7.67
2019-05-07T13:20:59.584Z,8.20
2019-05-07T13:23:27.989Z,7.08
2019-05-07T13:25:56.436Z,5.55
2019-05-07T13:28:26.375Z,6.30
2019-05-07T13:30:54.819Z,9.70
2019-05-07T13:33:23.803Z,8.35
2019-05-07T13:35:52.631Z,6.42
2019-05-07T13:38:38.974Z,4.95
2019-05-07T13:41:25.493Z,7.62
2019-05-07T13:44:05.166Z,7.30
2019-05-07T13:46:35.494Z,8.08
2019-05-07T13:49:03.983Z,7.35
2019-05-07T13:51:33.902Z,8.50
2019-05-07T13:54:02.607Z,10.08
2019-05-07T13:56:32.668Z,9.48
2019-05-07T13:59:04.649Z,9.90
2019-05-07T14:01:39.160Z,8.70
2019-05-07T14:04:07.582Z,7.97
2019-05-07T14:06:38.733Z,7.37
2019-05-07T14:09:19.483Z,10.25
2019-05-07T14:11:47.968Z,8.48
2019-05-07T14:14:16.447Z,8.90
2019-05-07T14:16:45.203Z,9.55
2019-05-07T14:19:13.841Z,8.30
2019-05-07T14:21:42.410Z,8.90
2019-05-07T14:24:12.297Z,6.20
2019-05-07T14:26:42.211Z,9.40
2019-05-07T14:29:10.791Z,9.03
2019-05-07T14:31:39.217Z,11.33
2019-05-07T14:34:24.265Z,7.90
2019-05-07T14:37:04.702Z,10.20
2019-05-07T14:39:33.358Z,8.63
2019-05-07T14:42:03.429Z,9.58
2019-05-07T14:44:52.631Z,14.23
2019-05-07T14:47:22.285Z,7.08
2019-05-07T14:49:52.895Z,7.15
2019-05-07T14:52:30.179Z,8.08
2019-05-07T14:54:51.423Z,10.28
2019-05-07T14:57:21.972Z,9.20
2019-05-07T14:59:52.233Z,11.10
2019-05-07T15:02:20.338Z,9.83
2019-05-07T15:04:48.770Z,10.68
2019-05-07T15:07:17.252Z,11.75
2019-05-07T15:09:45.950Z,10.08
2019-05-07T15:12:14.934Z,9.18
2019-05-07T15:14:43.910Z,9.50
2019-05-07T15:17:14.041Z,7.87
2019-05-07T15:19:42.851Z,8.55
2019-05-07T15:22:42.900Z,14.07
2019-05-07T15:24:59.416Z,7.80
2019-05-07T15:27:27.895Z,6.97
2019-05-07T15:29:56.352Z,7.90
2019-05-07T15:32:24.754Z,7.85
2019-05-07T15:34:53.371Z,6.92
2019-05-07T15:37:21.820Z,8.20
2019-05-07T15:39:50.311Z,7.28
2019-05-07T15:42:18.826Z,9.65
2019-05-07T15:44:47.287Z,9.13
2019-05-07T15:47:22.161Z,7.12
2019-05-07T15:49:50.188Z,11.40
2019-05-07T15:52:35.534Z,9.78
2019-05-07T15:55:06.120Z,9.88
2019-05-07T15:57:34.578Z,12.00
2019-05-07T16:00:05.258Z,10.00
2019-05-07T16:02:35.330Z,12.15
2019-05-07T16:05:05.173Z,11.20
2019-05-07T16:07:33.584Z,16.90
2019-05-07T16:10:02.084Z,14.33
2019-05-07T16:12:31.954Z,12.05
2019-05-07T16:15:03.001Z,11.95
2019-05-07T16:17:32.830Z,9.98
2019-05-07T16:20:03.222Z,12.43
2019-05-07T16:22:35.686Z,14.93
2019-05-07T16:25:07.244Z,16.25
2019-05-07T16:27:36.739Z,11.12
2019-05-07T16:30:06.951Z,11.78
2019-05-07T16:32:35.443Z,12.82
2019-05-07T16:35:05.629Z,11.10
2019-05-07T16:37:34.186Z,12.95
2019-05-07T16:40:04.549Z,13.78
2019-05-07T16:42:33.119Z,16.50
2019-05-07T16:45:02.928Z,14.07
2019-05-07T16:47:31.465Z,11.97
2019-05-07T16:50:04.031Z,12.98
2019-05-07T16:52:34.792Z,11.57
2019-05-07T16:55:02.825Z,15.90
2019-05-07T16:57:34.936Z,12.93
2019-05-07T17:00:05.472Z,12.53
2019-05-07T17:02:38.454Z,13.65
2019-05-07T17:05:12.421Z,13.30
2019-05-07T17:07:52.117Z,14.35
2019-05-07T17:10:22.380Z,15.75
2019-05-07T17:12:52.392Z,11.90
2019-05-07T17:15:22.839Z,11.33
2019-05-07T17:18:00.043Z,12.58
2019-05-07T17:20:29.020Z,12.68
2019-05-07T17:22:57.767Z,14.30
2019-05-07T17:25:38.334Z,10.18
2019-05-07T17:28:08.121Z,12.98
2019-05-07T17:30:37.785Z,13.22
2019-05-07T17:33:06.734Z,12.50
2019-05-07T17:35:35.188Z,10.75
2019-05-07T17:38:07.224Z,15.93
2019-05-07T17:40:34.465Z,15.08
2019-05-07T17:43:03.232Z,16.27
2019-05-07T17:45:32.781Z,18.32
2019-05-07T17:48:03.250Z,12.03
2019-05-07T17:50:36.556Z,13.58
2019-05-07T17:53:04.978Z,14.75
2019-05-07T17:55:33.421Z,13.22
2019-05-07T17:58:02.062Z,14.70
2019-05-07T18:00:32.720Z,14.73
2019-05-07T18:03:18.861Z,14.63
2019-05-07T18:05:47.279Z,15.10
2019-05-07T18:08:15.690Z,15.35
2019-05-07T18:10:44.117Z,16.60
2019-05-07T18:13:13.037Z,17.90
2019-05-07T18:15:42.744Z,14.55
2019-05-07T18:18:14.499Z,15.37
2019-05-07T18:20:42.924Z,17.35
2019-05-07T18:23:16.667Z,18.35
2019-05-07T18:25:42.864Z,14.83
2019-05-07T18:28:12.316Z,14.68
2019-05-07T18:30:40.824Z,17.25
2019-05-07T18:33:10.915Z,20.40
2019-05-07T18:35:39.333Z,17.70
2019-05-07T18:38:07.775Z,15.65
2019-05-07T18:40:36.198Z,16.93
2019-05-07T18:43:04.729Z,21.90
2019-05-07T18:45:33.156Z,14.05
2019-05-07T18:48:02.433Z,19.77
2019-05-07T18:50:32.527Z,16.52
2019-05-07T18:53:02.819Z,16.77
2019-05-07T18:55:33.076Z,17.62
2019-05-07T18:58:02.777Z,18.17
2019-05-07T19:00:39.161Z,19.90
2019-05-07T19:03:07.679Z,16.05
2019-05-07T19:05:36.136Z,22.35
2019-05-07T19:08:08.326Z,24.37
2019-05-07T19:10:34.752Z,28.23
2019-05-07T19:13:03.193Z,31.50
2019-05-07T19:15:32.914Z,28.87
2019-05-07T19:18:02.676Z,25.02
2019-05-07T19:20:32.612Z,29.77
2019-05-07T19:23:02.701Z,31.82
2019-05-07T19:25:32.691Z,24.23
2019-05-07T19:28:02.050Z,23.67
2019-05-07T19:30:32.628Z,24.40
2019-05-07T19:33:00.838Z,21.85
2019-05-07T19:35:29.286Z,28.00
2019-05-07T19:37:57.775Z,18.32
2019-05-07T19:40:26.205Z,21.82
2019-05-07T19:42:54.779Z,24.50
2019-05-07T19:45:24.455Z,24.10
2019-05-07T19:47:53.064Z,17.75
2019-05-07T19:50:23.310Z,23.32
2019-05-07T19:52:53.940Z,22.50
2019-05-07T19:55:22.350Z,20.75
2019-05-07T19:57:55.299Z,15.98
2019-05-07T20:00:25.396Z,16.05
2019-05-07T20:02:56.251Z,16.85
2019-05-07T20:07:55.583Z,24.60
2019-05-07T20:10:24.110Z,15.53
2019-05-07T20:12:52.555Z,18.60
2019-05-07T20:15:22.408Z,18.73
2019-05-07T20:17:52.627Z,24.18
2019-05-07T20:20:22.176Z,20.23
2019-05-07T20:22:51.831Z,16.30
2019-05-07T20:25:22.434Z,18.55
2019-05-07T20:27:52.592Z,21.93
2019-05-07T20:30:22.750Z,19.32
2019-05-07T20:32:52.294Z,17.48
2019-05-07T20:35:20.981Z,16.62
2019-05-07T20:37:49.425Z,13.70
2019-05-07T20:40:17.867Z,17.32
2019-05-07T20:42:46.296Z,14.03
2019-05-07T20:45:14.820Z,16.40
2019-05-07T20:47:43.240Z,12.18
2019-05-07T20:50:12.736Z,17.23
2019-05-07T20:52:41.909Z,14.95
2019-05-07T20:55:30.632Z,18.80
2019-05-07T20:57:54.227Z,15.43
2019-05-07T21:00:24.334Z,16.40
2019-05-07T21:03:12.491Z,15.53
2019-05-07T21:05:42.185Z,13.60
2019-05-07T21:08:11.934Z,9.33
2019-05-07T21:10:42.543Z,14.65
2019-05-07T21:13:26.383Z,16.40
2019-05-07T21:15:41.870Z,15.93
2019-05-07T21:18:12.364Z,13.98
2019-05-07T21:20:42.047Z,16.50
2019-05-07T21:23:12.200Z,18.07
2019-05-07T21:25:43.458Z,17.02
2019-05-07T21:28:12.177Z,18.98
2019-05-07T21:30:42.691Z,20.27
2019-05-07T21:33:11.968Z,23.00
2019-05-07T21:35:42.739Z,22.85
2019-05-07T21:38:12.654Z,19.57
2019-05-07T21:40:42.931Z,20.37
2019-05-07T21:43:12.293Z,20.30
2019-05-07T21:45:42.290Z,21.68
2019-05-07T21:48:13.516Z,18.65
2019-05-07T21:50:41.078Z,19.52
2019-05-07T21:53:26.428Z,23.55
2019-05-07T21:56:12.626Z,19.73
2019-05-07T21:59:02.866Z,21.50
2019-05-07T22:01:38.621Z,22.35
2019-05-07T22:04:07.109Z,19.92
2019-05-07T22:06:35.542Z,20.85
2019-05-07T22:09:07.440Z,20.65
2019-05-07T22:11:36.007Z,19.90
2019-05-07T22:14:06.039Z,17.57
2019-05-07T22:16:34.476Z,24.57
2019-05-07T22:19:02.965Z,23.67
2019-05-07T22:21:33.889Z,21.37
2019-05-07T22:24:02.811Z,22.32
2019-05-07T22:26:32.194Z,19.47
2019-05-07T22:29:02.906Z,22.73
2019-05-07T22:31:32.614Z,19.32
2019-05-07T22:34:18.747Z,21.90
2019-05-07T22:36:47.168Z,24.90
2019-05-07T22:39:15.592Z,22.58
2019-05-07T22:41:44.018Z,25.15
2019-05-07T22:44:12.455Z,25.32
2019-05-07T22:46:42.171Z,25.37
2019-05-07T22:49:12.233Z,24.13
2019-05-07T22:51:40.803Z,26.40
2019-05-07T22:54:09.234Z,24.25
2019-05-07T22:56:57.330Z,20.40
2019-05-07T22:59:25.756Z,23.27
2019-05-07T23:01:54.950Z,22.85
2019-05-07T23:04:23.594Z,25.00
2019-05-07T23:06:52.747Z,20.45
2019-05-07T23:09:22.318Z,24.70
2019-05-07T23:11:52.657Z,26.93
2019-05-07T23:14:22.675Z,23.42
2019-05-07T23:16:55.003Z,24.70
2019-05-07T23:19:22.130Z,23.87
2019-05-07T23:21:52.157Z,21.90
2019-05-07T23:24:24.463Z,28.05
2019-05-07T23:26:53.302Z,23.57
2019-05-07T23:29:22.531Z,24.92
2019-05-07T23:31:52.839Z,20.70
2019-05-07T23:34:22.129Z,26.05
2019-05-07T23:36:53.067Z,26.93
2019-05-07T23:39:22.552Z,23.32
2019-05-07T23:41:58.304Z,23.35
2019-05-07T23:44:26.736Z,27.22
2019-05-07T23:46:55.170Z,23.42
2019-05-07T23:49:23.600Z,24.00
2019-05-07T23:51:53.017Z,23.60
2019-05-07T23:54:22.986Z,25.12
2019-05-07T23:57:04.927Z,21.33
2019-05-07T23:59:22.350Z,23.50
